Norwich, Connecticut
Current Conditions -  °F | °C
As of 3:56 PM on Sunday 21 Dec 2014 (Local Time) from KGON Reporting Station
Light Rain Light Rain  
Wind Chill: 28°   Ceiling: 3400
Heat Index: 36°   Visibility: 7mi
Dew Point: 34°   Wind: 10mph
Humidity: 93%   Direction: 30°NNE
Pressure: 30.26"   Gusts: NA
Location:  41.53°N, 72.08°W
Report Text: KGON 212056Z 03009KT 7SM -RA OVC034 02/01 A3026 RMK AO2 RAB34 SLP248 P0000 60000 T00220011 51007
Loading
Personal Weather Stations






























Interactive Weather Map New forecast layout! Learn more

10-Day Weather Forecast

Advertisements
Track Severe Weather on mobile